sensor_id;sensor_type;location;lat;lon;timestamp;pressure;altitude;pressure_sealevel;temperature;humidity
54882;BME280;40775;51.448;4.742;2023-10-19T00:02:06;99213.41;;;14.20;100.00
54882;BME280;40775;51.448;4.742;2023-10-19T00:04:34;99219.50;;;14.22;100.00
54882;BME280;40775;51.448;4.742;2023-10-19T00:07:04;99214.19;;;14.24;100.00
54882;BME280;40775;51.448;4.742;2023-10-19T00:09:34;99222.91;;;14.29;100.00
54882;BME280;40775;51.448;4.742;2023-10-19T00:12:05;99218.59;;;14.25;100.00
54882;BME280;40775;51.448;4.742;2023-10-19T00:14:36;99228.25;;;14.26;100.00
54882;BME280;40775;51.448;4.742;2023-10-19T00:17:03;99228.97;;;14.34;100.00
54882;BME280;40775;51.448;4.742;2023-10-19T00:19:33;99227.13;;;14.38;100.00
54882;BME280;40775;51.448;4.742;2023-10-19T00:22:06;99224.38;;;14.42;100.00
54882;BME280;40775;51.448;4.742;2023-10-19T00:24:35;99225.19;;;14.47;100.00
54882;BME280;40775;51.448;4.742;2023-10-19T00:27:03;99227.59;;;14.58;100.00
54882;BME280;40775;51.448;4.742;2023-10-19T00:29:42;99228.38;;;14.63;100.00
54882;BME280;40775;51.448;4.742;2023-10-19T00:32:16;99228.38;;;14.63;100.00
54882;BME280;40775;51.448;4.742;2023-10-19T00:34:45;99232.81;;;14.61;100.00
54882;BME280;40775;51.448;4.742;2023-10-19T00:37:19;99237.13;;;14.65;100.00
54882;BME280;40775;51.448;4.742;2023-10-19T00:39:55;99237.88;;;14.70;100.00
54882;BME280;40775;51.448;4.742;2023-10-19T00:42:23;99237.84;;;14.72;100.00
54882;BME280;40775;51.448;4.742;2023-10-19T00:44:58;99241.31;;;14.74;100.00
54882;BME280;40775;51.448;4.742;2023-10-19T00:47:48;99248.41;;;14.72;100.00
54882;BME280;40775;51.448;4.742;2023-10-19T00:50:15;99244.88;;;14.73;100.00
54882;BME280;40775;51.448;4.742;2023-10-19T00:52:44;99250.97;;;14.75;100.00
54882;BME280;40775;51.448;4.742;2023-10-19T00:55:17;99242.19;;;14.74;100.00
54882;BME280;40775;51.448;4.742;2023-10-19T00:57:48;99251.78;;;14.78;100.00
54882;BME280;40775;51.448;4.742;2023-10-19T01:00:16;99251.84;;;14.75;100.00
54882;BME280;40775;51.448;4.742;2023-10-19T01:02:58;99250.91;;;14.79;100.00
54882;BME280;40775;51.448;4.742;2023-10-19T01:05:32;99252.66;;;14.79;100.00
54882;BME280;40775;51.448;4.742;2023-10-19T01:08:04;99251.78;;;14.80;100.00
54882;BME280;40775;51.448;4.742;2023-10-19T01:10:51;99249.97;;;14.82;100.00
54882;BME280;40775;51.448;4.742;2023-10-19T01:13:19;99251.78;;;14.80;100.00
54882;BME280;40775;51.448;4.742;2023-10-19T01:15:54;99252.56;;;14.83;100.00
54882;BME280;40775;51.448;4.742;2023-10-19T01:18:23;99251.63;;;14.86;100.00
54882;BME280;40775;51.448;4.742;2023-10-19T01:20:55;99263.06;;;14.87;100.00
54882;BME280;40775;51.448;4.742;2023-10-19T01:23:23;99259.44;;;14.91;100.00
54882;BME280;40775;51.448;4.742;2023-10-19T01:25:58;99263.03;;;14.88;100.00
54882;BME280;40775;51.448;4.742;2023-10-19T01:28:27;99259.53;;;14.88;100.00
54882;BME280;40775;51.448;4.742;2023-10-19T01:31:16;99259.53;;;14.88;100.00
54882;BME280;40775;51.448;4.742;2023-10-19T01:33:44;99253.44;;;14.84;100.00
54882;BME280;40775;51.448;4.742;2023-10-19T01:36:12;99261.28;;;14.87;100.00
54882;BME280;40775;51.448;4.742;2023-10-19T01:38:49;99255.03;;;14.91;100.00
54882;BME280;40775;51.448;4.742;2023-10-19T01:41:16;99251.72;;;14.83;100.00
54882;BME280;40775;51.448;4.742;2023-10-19T01:43:49;99255.19;;;14.85;100.00
54882;BME280;40775;51.448;4.742;2023-10-19T01:46:18;99262.25;;;14.84;100.00
54882;BME280;40775;51.448;4.742;2023-10-19T01:49:03;99256.91;;;14.86;100.00
54882;BME280;40775;51.448;4.742;2023-10-19T01:51:32;99254.28;;;14.86;100.00
54882;BME280;40775;51.448;4.742;2023-10-19T01:54:00;99250.72;;;14.87;100.00
54882;BME280;40775;51.448;4.742;2023-10-19T01:56:30;99252.47;;;14.88;100.00
54882;BME280;40775;51.448;4.742;2023-10-19T01:58:57;99258.66;;;14.87;100.00
54882;BME280;40775;51.448;4.742;2023-10-19T02:01:25;99264.00;;;14.84;100.00
54882;BME280;40775;51.448;4.742;2023-10-19T02:03:59;99260.41;;;14.88;100.00
54882;BME280;40775;51.448;4.742;2023-10-19T02:06:30;99263.94;;;14.87;100.00
54882;BME280;40775;51.448;4.742;2023-10-19T02:09:10;99257.84;;;14.83;100.00
54882;BME280;40775;51.448;4.742;2023-10-19T02:12:06;99247.28;;;14.83;100.00
54882;BME280;40775;51.448;4.742;2023-10-19T02:14:34;99247.28;;;14.83;100.00
54882;BME280;40775;51.448;4.742;2023-10-19T02:17:01;99248.16;;;14.84;100.00
54882;BME280;40775;51.448;4.742;2023-10-19T02:19:31;99256.13;;;14.82;100.00
54882;BME280;40775;51.448;4.742;2023-10-19T02:22:02;99255.19;;;14.85;100.00
54882;BME280;40775;51.448;4.742;2023-10-19T02:24:31;99247.31;;;14.82;100.00
54882;BME280;40775;51.448;4.742;2023-10-19T02:26:59;99245.50;;;14.84;100.00
54882;BME280;40775;51.448;4.742;2023-10-19T02:29:28;99252.56;;;14.83;100.00
54882;BME280;40775;51.448;4.742;2023-10-19T02:31:55;99246.47;;;14.81;100.00
54882;BME280;40775;51.448;4.742;2023-10-19T02:34:24;99249.94;;;14.83;100.00
54882;BME280;40775;51.448;4.742;2023-10-19T02:36:51;99245.56;;;14.82;100.00
54882;BME280;40775;51.448;4.742;2023-10-19T02:39:18;99253.47;;;14.82;100.00
54882;BME280;40775;51.448;4.742;2023-10-19T02:41:47;99244.56;;;14.87;100.00
54882;BME280;40775;51.448;4.742;2023-10-19T02:44:20;99244.56;;;14.87;100.00
54882;BME280;40775;51.448;4.742;2023-10-19T02:46:54;99245.50;;;14.84;100.00
54882;BME280;40775;51.448;4.742;2023-10-19T02:49:33;99240.31;;;14.81;100.00
54882;BME280;40775;51.448;4.742;2023-10-19T02:52:05;99240.34;;;14.78;100.00
54882;BME280;40775;51.448;4.742;2023-10-19T02:54:32;99247.44;;;14.76;100.00
54882;BME280;40775;51.448;4.742;2023-10-19T02:57:00;99238.59;;;14.77;100.00
54882;BME280;40775;51.448;4.742;2023-10-19T02:59:29;99245.63;;;14.78;100.00
54882;BME280;40775;51.448;4.742;2023-10-19T03:01:59;99232.50;;;14.75;100.00
54882;BME280;40775;51.448;4.742;2023-10-19T03:04:44;99243.06;;;14.75;100.00
54882;BME280;40775;51.448;4.742;2023-10-19T03:07:13;99238.72;;;14.72;100.00
54882;BME280;40775;51.448;4.742;2023-10-19T03:09:42;99233.41;;;14.74;100.00
54882;BME280;40775;51.448;4.742;2023-10-19T03:12:16;99230.84;;;14.71;100.00
54882;BME280;40775;51.448;4.742;2023-10-19T03:14:44;99218.50;;;14.71;100.00
54882;BME280;40775;51.448;4.742;2023-10-19T03:17:15;99222.00;;;14.72;100.00
54882;BME280;40775;51.448;4.742;2023-10-19T03:19:43;99224.69;;;14.70;100.00
54882;BME280;40775;51.448;4.742;2023-10-19T03:22:10;99217.66;;;14.69;100.00
54882;BME280;40775;51.448;4.742;2023-10-19T03:24:38;99219.41;;;14.70;100.00
54882;BME280;40775;51.448;4.742;2023-10-19T03:27:15;99223.91;;;14.65;100.00
54882;BME280;40775;51.448;4.742;2023-10-19T03:29:50;99220.38;;;14.66;100.00
54882;BME280;40775;51.448;4.742;2023-10-19T03:32:23;99232.78;;;14.63;100.00
54882;BME280;40775;51.448;4.742;2023-10-19T03:34:56;99217.03;;;14.58;100.00
54882;BME280;40775;51.448;4.742;2023-10-19T03:37:25;99216.25;;;14.55;100.00
54882;BME280;40775;51.448;4.742;2023-10-19T03:39:56;99210.16;;;14.49;100.00
54882;BME280;40775;51.448;4.742;2023-10-19T03:42:25;99201.41;;;14.47;100.00
54882;BME280;40775;51.448;4.742;2023-10-19T03:44:53;99201.47;;;14.44;100.00
54882;BME280;40775;51.448;4.742;2023-10-19T03:47:21;99208.53;;;14.42;100.00
54882;BME280;40775;51.448;4.742;2023-10-19T03:49:53;99206.06;;;14.35;100.00
54882;BME280;40775;51.448;4.742;2023-10-19T03:52:20;99211.34;;;14.35;100.00
54882;BME280;40775;51.448;4.742;2023-10-19T03:54:48;99210.34;;;14.40;100.00
54882;BME280;40775;51.448;4.742;2023-10-19T03:57:18;99206.94;;;14.35;100.00
54882;BME280;40775;51.448;4.742;2023-10-19T03:59:57;99207.88;;;14.33;100.00
54882;BME280;40775;51.448;4.742;2023-10-19T04:02:28;99209.78;;;14.26;100.00
54882;BME280;40775;51.448;4.742;2023-10-19T04:04:56;99202.81;;;14.22;100.00
54882;BME280;40775;51.448;4.742;2023-10-19T04:07:24;99206.41;;;14.18;100.00
54882;BME280;40775;51.448;4.742;2023-10-19T04:09:58;99210.84;;;14.16;100.00
54882;BME280;40775;51.448;4.742;2023-10-19T04:12:31;99200.38;;;14.13;100.00
54882;BME280;40775;51.448;4.742;2023-10-19T04:14:59;99206.47;;;14.15;100.00
54882;BME280;40775;51.448;4.742;2023-10-19T04:17:38;99207.50;;;14.08;100.00
54882;BME280;40775;51.448;4.742;2023-10-19T04:20:07;99216.28;;;14.08;100.00
54882;BME280;40775;51.448;4.742;2023-10-19T04:22:49;99216.31;;;14.07;100.00
54882;BME280;40775;51.448;4.742;2023-10-19T04:25:18;99206.59;;;14.09;100.00
54882;BME280;40775;51.448;4.742;2023-10-19T04:27:47;99212.75;;;14.09;100.00
54882;BME280;40775;51.448;4.742;2023-10-19T04:30:16;99207.44;;;14.11;100.00
54882;BME280;40775;51.448;4.742;2023-10-19T04:32:46;99208.31;;;14.11;100.00
54882;BME280;40775;51.448;4.742;2023-10-19T04:35:14;99210.84;;;14.16;100.00
54882;BME280;40775;51.448;4.742;2023-10-19T04:37:52;99211.69;;;14.18;100.00
54882;BME280;40775;51.448;4.742;2023-10-19T04:40:22;99211.66;;;14.19;100.00
54882;BME280;40775;51.448;4.742;2023-10-19T04:42:53;99213.44;;;14.19;100.00
54882;BME280;40775;51.448;4.742;2023-10-19T04:45:21;99220.50;;;14.17;100.00
54882;BME280;40775;51.448;4.742;2023-10-19T04:47:52;99218.66;;;14.20;100.00
54882;BME280;40775;51.448;4.742;2023-10-19T04:50:20;99230.97;;;14.21;100.00
54882;BME280;40775;51.448;4.742;2023-10-19T04:52:47;99229.16;;;14.25;100.00
54882;BME280;40775;51.448;4.742;2023-10-19T04:55:14;99233.56;;;14.23;100.00
54882;BME280;40775;51.448;4.742;2023-10-19T04:57:41;99230.94;;;14.25;100.00
54882;BME280;40775;51.448;4.742;2023-10-19T05:00:09;99234.44;;;14.25;100.00
54882;BME280;40775;51.448;4.742;2023-10-19T05:02:41;99231.81;;;14.25;100.00
54882;BME280;40775;51.448;4.742;2023-10-19T05:05:09;99232.59;;;14.29;100.00
54882;BME280;40775;51.448;4.742;2023-10-19T05:07:36;99229.13;;;14.27;100.00
54882;BME280;40775;51.448;4.742;2023-10-19T05:10:04;99230.00;;;14.27;100.00
54882;BME280;40775;51.448;4.742;2023-10-19T05:12:32;99236.13;;;14.29;100.00
54882;BME280;40775;51.448;4.742;2023-10-19T05:14:59;99235.25;;;14.29;100.00
54882;BME280;40775;51.448;4.742;2023-10-19T05:17:26;99233.41;;;14.32;100.00
54882;BME280;40775;51.448;4.742;2023-10-19T05:19:54;99232.50;;;14.33;100.00
54882;BME280;40775;51.448;4.742;2023-10-19T05:22:23;99239.56;;;14.33;100.00
54882;BME280;40775;51.448;4.742;2023-10-19T05:24:52;99236.00;;;14.34;100.00
54882;BME280;40775;51.448;4.742;2023-10-19T05:27:19;99232.50;;;14.33;100.00
54882;BME280;40775;51.448;4.742;2023-10-19T05:29:47;99236.84;;;14.36;100.00
54882;BME280;40775;51.448;4.742;2023-10-19T05:32:14;99228.84;;;14.39;100.00
54882;BME280;40775;51.448;4.742;2023-10-19T05:34:41;99233.31;;;14.37;100.00
54882;BME280;40775;51.448;4.742;2023-10-19T05:37:08;99224.44;;;14.39;100.00
54882;BME280;40775;51.448;4.742;2023-10-19T05:39:37;99233.34;;;14.35;100.00
54882;BME280;40775;51.448;4.742;2023-10-19T05:42:04;99233.38;;;14.34;100.00
54882;BME280;40775;51.448;4.742;2023-10-19T05:44:32;99224.59;;;14.33;100.00
54882;BME280;40775;51.448;4.742;2023-10-19T05:47:00;99246.13;;;14.95;100.00
54882;BME280;40775;51.448;4.742;2023-10-19T05:49:27;99254.94;;;15.31;100.00
54882;BME280;40775;51.448;4.742;2023-10-19T05:51:57;99245.50;;;15.57;100.00
54882;BME280;40775;51.448;4.742;2023-10-19T05:54:24;99242.41;;;15.75;100.00
54882;BME280;40775;51.448;4.742;2023-10-19T05:56:52;99230.66;;;15.85;100.00
54882;BME280;40775;51.448;4.742;2023-10-19T05:59:20;99220.56;;;16.01;100.00
54882;BME280;40775;51.448;4.742;2023-10-19T06:01:47;99218.53;;;16.09;100.00
54882;BME280;40775;51.448;4.742;2023-10-19T06:04:15;99206.84;;;16.18;100.00
54882;BME280;40775;51.448;4.742;2023-10-19T06:06:47;99202.06;;;16.30;100.00
54882;BME280;40775;51.448;4.742;2023-10-19T06:09:16;99199.22;;;16.36;100.00
54882;BME280;40775;51.448;4.742;2023-10-19T06:11:45;99203.50;;;16.41;100.00
54882;BME280;40775;51.448;4.742;2023-10-19T06:14:12;99199.94;;;16.42;100.00
54882;BME280;40775;51.448;4.742;2023-10-19T06:16:40;99213.03;;;16.48;100.00
54882;BME280;40775;51.448;4.742;2023-10-19T06:19:07;99209.22;;;16.56;100.00
54882;BME280;40775;51.448;4.742;2023-10-19T06:21:34;99210.00;;;16.60;100.00
54882;BME280;40775;51.448;4.742;2023-10-19T06:24:02;99211.81;;;16.58;100.00
54882;BME280;40775;51.448;4.742;2023-10-19T06:26:30;99218.97;;;16.56;100.00
54882;BME280;40775;51.448;4.742;2023-10-19T06:28:57;99223.34;;;16.57;100.00
54882;BME280;40775;51.448;4.742;2023-10-19T06:31:26;99225.88;;;16.60;100.00
54882;BME280;40775;51.448;4.742;2023-10-19T06:33:53;99220.59;;;16.60;100.00
54882;BME280;40775;51.448;4.742;2023-10-19T06:36:20;99225.78;;;16.63;100.00
54882;BME280;40775;51.448;4.742;2023-10-19T06:38:47;99223.97;;;16.65;100.00
54882;BME280;40775;51.448;4.742;2023-10-19T06:41:17;99223.09;;;16.66;100.00
54882;BME280;40775;51.448;4.742;2023-10-19T06:43:45;99223.97;;;16.65;100.00
54882;BME280;40775;51.448;4.742;2023-10-19T06:46:13;99224.94;;;16.62;100.00
54882;BME280;40775;51.448;4.742;2023-10-19T06:48:42;99231.03;;;16.64;100.00
54882;BME280;40775;51.448;4.742;2023-10-19T06:51:09;99230.19;;;16.64;100.00
54882;BME280;40775;51.448;4.742;2023-10-19T06:53:38;99227.47;;;16.65;100.00
54882;BME280;40775;51.448;4.742;2023-10-19T06:56:05;99224.97;;;16.61;100.00
54882;BME280;40775;51.448;4.742;2023-10-19T06:58:33;99226.00;;;16.57;100.00
54882;BME280;40775;51.448;4.742;2023-10-19T07:01:01;99209.19;;;16.58;100.00
54882;BME280;40775;51.448;4.742;2023-10-19T07:03:37;99208.16;;;16.62;100.00
54882;BME280;40775;51.448;4.742;2023-10-19T07:06:05;99210.69;;;16.66;100.00
54882;BME280;40775;51.448;4.742;2023-10-19T07:08:39;99215.13;;;16.66;100.00
54882;BME280;40775;51.448;4.742;2023-10-19T07:11:07;99216.13;;;16.62;100.00
54882;BME280;40775;51.448;4.742;2023-10-19T07:13:34;99214.28;;;16.64;100.00
54882;BME280;40775;51.448;4.742;2023-10-19T07:16:02;99214.25;;;16.65;100.00
54882;BME280;40775;51.448;4.742;2023-10-19T07:18:31;99206.28;;;16.67;100.00
54882;BME280;40775;51.448;4.742;2023-10-19T07:20:58;99216.81;;;16.68;100.00
54882;BME280;40775;51.448;4.742;2023-10-19T07:23:32;99211.56;;;16.67;100.00
54882;BME280;40775;51.448;4.742;2023-10-19T07:25:59;99215.03;;;16.69;100.00
54882;BME280;40775;51.448;4.742;2023-10-19T07:28:27;99203.63;;;16.67;100.00
54882;BME280;40775;51.448;4.742;2023-10-19T07:30:55;99198.28;;;16.68;100.00
54882;BME280;40775;51.448;4.742;2023-10-19T07:33:23;99198.44;;;16.62;100.00
54882;BME280;40775;51.448;4.742;2023-10-19T07:35:51;99175.41;;;16.64;100.00
54882;BME280;40775;51.448;4.742;2023-10-19T07:38:27;99179.84;;;16.64;100.00
54882;BME280;40775;51.448;4.742;2023-10-19T07:40:55;99183.28;;;16.67;100.00
54882;BME280;40775;51.448;4.742;2023-10-19T07:43:23;99178.97;;;16.63;100.00
54882;BME280;40775;51.448;4.742;2023-10-19T07:45:52;99183.47;;;16.61;100.00
54882;BME280;40775;51.448;4.742;2023-10-19T07:48:20;99186.81;;;16.68;100.00
54882;BME280;40775;51.448;4.742;2023-10-19T07:50:47;99177.94;;;16.69;100.00
54882;BME280;40775;51.448;4.742;2023-10-19T07:53:14;99176.16;;;16.69;100.00
54882;BME280;40775;51.448;4.742;2023-10-19T07:55:41;99173.50;;;16.69;100.00
54882;BME280;40775;51.448;4.742;2023-10-19T07:58:10;99174.44;;;16.68;100.00
54882;BME280;40775;51.448;4.742;2023-10-19T08:00:37;99164.75;;;16.67;100.00
54882;BME280;40775;51.448;4.742;2023-10-19T08:03:06;99163.00;;;16.66;100.00
54882;BME280;40775;51.448;4.742;2023-10-19T08:05:34;99155.06;;;16.66;100.00
54882;BME280;40775;51.448;4.742;2023-10-19T08:08:02;99161.22;;;16.67;100.00
54882;BME280;40775;51.448;4.742;2023-10-19T08:10:31;99161.25;;;16.65;100.00
54882;BME280;40775;51.448;4.742;2023-10-19T08:12:59;99157.72;;;16.65;100.00
54882;BME280;40775;51.448;4.742;2023-10-19T08:15:26;99155.94;;;16.67;100.00
54882;BME280;40775;51.448;4.742;2023-10-19T08:17:55;99156.91;;;16.63;100.00
54882;BME280;40775;51.448;4.742;2023-10-19T08:20:23;99157.00;;;16.60;100.00
54882;BME280;40775;51.448;4.742;2023-10-19T08:22:52;99142.75;;;16.64;100.00
54882;BME280;40775;51.448;4.742;2023-10-19T08:25:20;99147.13;;;16.65;100.00
54882;BME280;40775;51.448;4.742;2023-10-19T08:27:48;99154.22;;;16.64;100.00
54882;BME280;40775;51.448;4.742;2023-10-19T08:30:19;99146.25;;;16.64;100.00
54882;BME280;40775;51.448;4.742;2023-10-19T08:32:49;99149.94;;;16.60;100.00
54882;BME280;40775;51.448;4.742;2023-10-19T08:35:20;99143.66;;;16.63;100.00
54882;BME280;40775;51.448;4.742;2023-10-19T08:37:56;99147.13;;;16.65;100.00
54882;BME280;40775;51.448;4.742;2023-10-19T08:40:26;99140.19;;;16.61;100.00
54882;BME280;40775;51.448;4.742;2023-10-19T08:42:54;99138.31;;;16.66;100.00
54882;BME280;40775;51.448;4.742;2023-10-19T08:45:22;99132.16;;;16.64;100.00
54882;BME280;40775;51.448;4.742;2023-10-19T08:48:07;99125.94;;;16.65;100.00
54882;BME280;40775;51.448;4.742;2023-10-19T08:50:35;99129.44;;;16.67;100.00
54882;BME280;40775;51.448;4.742;2023-10-19T08:53:06;99121.56;;;16.64;100.00
54882;BME280;40775;51.448;4.742;2023-10-19T08:55:36;99117.13;;;16.64;100.00
54882;BME280;40775;51.448;4.742;2023-10-19T08:58:16;99117.00;;;16.69;100.00
54882;BME280;40775;51.448;4.742;2023-10-19T09:00:50;99119.72;;;16.67;100.00
54882;BME280;40775;51.448;4.742;2023-10-19T09:03:26;99115.19;;;16.71;100.00
54882;BME280;40775;51.448;4.742;2023-10-19T09:05:54;99115.19;;;16.71;100.00
54882;BME280;40775;51.448;4.742;2023-10-19T09:08:23;99116.94;;;16.71;100.00
54882;BME280;40775;51.448;4.742;2023-10-19T09:10:51;99120.34;;;16.76;100.00
54882;BME280;40775;51.448;4.742;2023-10-19T09:13:21;99117.66;;;16.77;100.00
54882;BME280;40775;51.448;4.742;2023-10-19T09:15:51;99105.41;;;16.73;100.00
54882;BME280;40775;51.448;4.742;2023-10-19T09:18:25;99103.53;;;16.77;100.00
54882;BME280;40775;51.448;4.742;2023-10-19T09:20:57;99098.22;;;16.77;100.00
54882;BME280;40775;51.448;4.742;2023-10-19T09:23:35;99099.31;;;16.71;100.00
54882;BME280;40775;51.448;4.742;2023-10-19T09:26:04;99095.75;;;16.71;100.00
54882;BME280;40775;51.448;4.742;2023-10-19T09:28:36;99091.25;;;16.74;100.00
54882;BME280;40775;51.448;4.742;2023-10-19T09:31:06;99100.84;;;16.78;100.00
54882;BME280;40775;51.448;4.742;2023-10-19T09:33:40;99093.94;;;16.73;100.00
54882;BME280;40775;51.448;4.742;2023-10-19T09:36:10;99093.81;;;16.77;100.00
54882;BME280;40775;51.448;4.742;2023-10-19T09:38:47;99106.03;;;16.81;100.00
54882;BME280;40775;51.448;4.742;2023-10-19T09:41:23;99095.31;;;16.84;100.00
54882;BME280;40775;51.448;4.742;2023-10-19T09:44:02;99099.81;;;16.82;100.00
54882;BME280;40775;51.448;4.742;2023-10-19T09:46:34;99098.03;;;16.83;100.00
54882;BME280;40775;51.448;4.742;2023-10-19T09:49:05;99105.09;;;16.82;100.00
54882;BME280;40775;51.448;4.742;2023-10-19T09:51:34;99098.19;;;16.78;100.00
54882;BME280;40775;51.448;4.742;2023-10-19T09:54:20;99084.00;;;16.79;100.00
54882;BME280;40775;51.448;4.742;2023-10-19T09:56:58;99077.84;;;16.79;100.00
54882;BME280;40775;51.448;4.742;2023-10-19T09:59:51;99080.34;;;16.83;100.00
54882;BME280;40775;51.448;4.742;2023-10-19T10:02:23;99070.59;;;16.84;100.00
54882;BME280;40775;51.448;4.742;2023-10-19T10:04:53;99083.69;;;16.88;100.00
54882;BME280;40775;51.448;4.742;2023-10-19T10:07:20;99088.06;;;16.89;100.00
54882;BME280;40775;51.448;4.742;2023-10-19T10:10:07;99089.09;;;16.85;100.00
54882;BME280;40775;51.448;4.742;2023-10-19T10:12:34;99087.38;;;16.84;100.00
54882;BME280;40775;51.448;4.742;2023-10-19T10:15:04;99084.78;;;16.83;100.00
54882;BME280;40775;51.448;4.742;2023-10-19T10:17:39;99088.25;;;16.85;100.00
54882;BME280;40775;51.448;4.742;2023-10-19T10:20:29;99089.91;;;16.87;100.00
54882;BME280;40775;51.448;4.742;2023-10-19T10:23:20;99101.44;;;16.86;100.00
54882;BME280;40775;51.448;4.742;2023-10-19T10:25:59;99101.31;;;16.89;100.00
54882;BME280;40775;51.448;4.742;2023-10-19T10:28:26;99106.56;;;16.91;100.00
54882;BME280;40775;51.448;4.742;2023-10-19T10:31:19;99106.53;;;16.92;100.00
54882;BME280;40775;51.448;4.742;2023-10-19T10:33:52;99105.75;;;16.89;100.00
54882;BME280;40775;51.448;4.742;2023-10-19T10:36:23;99101.31;;;16.89;100.00
54882;BME280;40775;51.448;4.742;2023-10-19T10:38:51;99103.06;;;16.90;100.00
54882;BME280;40775;51.448;4.742;2023-10-19T10:41:25;99099.50;;;16.91;100.00
54882;BME280;40775;51.448;4.742;2023-10-19T10:43:57;99088.03;;;16.91;100.00
54882;BME280;40775;51.448;4.742;2023-10-19T10:46:26;99085.31;;;16.92;100.00
54882;BME280;40775;51.448;4.742;2023-10-19T10:48:56;99078.19;;;16.94;100.00
54882;BME280;40775;51.448;4.742;2023-10-19T10:51:28;99080.84;;;16.94;100.00
54882;BME280;40775;51.448;4.742;2023-10-19T10:53:58;99081.63;;;16.96;100.00
54882;BME280;40775;51.448;4.742;2023-10-19T10:56:25;99071.03;;;16.96;100.00
54882;BME280;40775;51.448;4.742;2023-10-19T10:58:52;99075.47;;;16.96;100.00
54882;BME280;40775;51.448;4.742;2023-10-19T11:01:32;99065.91;;;16.92;100.00
54882;BME280;40775;51.448;4.742;2023-10-19T11:04:09;99057.84;;;16.95;100.00
54882;BME280;40775;51.448;4.742;2023-10-19T11:06:52;99056.97;;;16.94;100.00
54882;BME280;40775;51.448;4.742;2023-10-19T11:09:21;99056.97;;;16.94;100.00
54882;BME280;40775;51.448;4.742;2023-10-19T11:11:49;99048.09;;;16.95;100.00
54882;BME280;40775;51.448;4.742;2023-10-19T11:14:16;99046.31;;;16.96;100.00
54882;BME280;40775;51.448;4.742;2023-10-19T11:16:43;99035.78;;;16.94;100.00
54882;BME280;40775;51.448;4.742;2023-10-19T11:19:10;99031.28;;;16.96;100.00
54882;BME280;40775;51.448;4.742;2023-10-19T11:21:37;99022.41;;;16.97;100.00
54882;BME280;40775;51.448;4.742;2023-10-19T11:24:05;99032.06;;;17.00;100.00
54882;BME280;40775;51.448;4.742;2023-10-19T11:26:39;99034.72;;;17.00;100.00
54882;BME280;40775;51.448;4.742;2023-10-19T11:29:07;99032.00;;;17.02;100.00
54882;BME280;40775;51.448;4.742;2023-10-19T11:31:37;99028.50;;;17.01;100.00
54882;BME280;40775;51.448;4.742;2023-10-19T11:34:08;99023.25;;;16.99;100.00
54882;BME280;40775;51.448;4.742;2023-10-19T11:36:45;99019.69;;;17.01;100.00
54882;BME280;40775;51.448;4.742;2023-10-19T11:39:12;99017.03;;;17.01;100.00
54882;BME280;40775;51.448;4.742;2023-10-19T11:41:39;99010.88;;;17.00;100.00
54882;BME280;40775;51.448;4.742;2023-10-19T11:44:06;99018.75;;;17.02;100.00
54882;BME280;40775;51.448;4.742;2023-10-19T11:46:35;99015.25;;;17.01;100.00
54882;BME280;40775;51.448;4.742;2023-10-19T11:49:02;99018.66;;;17.05;100.00
54882;BME280;40775;51.448;4.742;2023-10-19T11:51:30;99011.78;;;16.99;100.00
54882;BME280;40775;51.448;4.742;2023-10-19T11:53:58;99008.28;;;16.98;100.00
54882;BME280;40775;51.448;4.742;2023-10-19T11:56:25;99001.13;;;17.01;100.00
54882;BME280;40775;51.448;4.742;2023-10-19T11:58:52;99003.78;;;17.01;100.00
54882;BME280;40775;51.448;4.742;2023-10-19T12:01:19;99000.19;;;17.02;100.00
54882;BME280;40775;51.448;4.742;2023-10-19T12:03:46;99001.00;;;17.04;100.00
54882;BME280;40775;51.448;4.742;2023-10-19T12:06:15;98994.78;;;17.05;100.00
54882;BME280;40775;51.448;4.742;2023-10-19T12:08:46;98995.75;;;17.02;100.00
54882;BME280;40775;51.448;4.742;2023-10-19T12:11:14;98994.78;;;17.05;100.00
54882;BME280;40775;51.448;4.742;2023-10-19T12:13:46;98993.06;;;17.04;100.00
54882;BME280;40775;51.448;4.742;2023-10-19T12:16:15;98983.25;;;17.06;100.00
54882;BME280;40775;51.448;4.742;2023-10-19T12:18:44;98982.34;;;17.07;100.00
54882;BME280;40775;51.448;4.742;2023-10-19T12:21:11;98980.66;;;17.04;100.00
54882;BME280;40775;51.448;4.742;2023-10-19T12:23:43;98978.88;;;17.05;100.00
54882;BME280;40775;51.448;4.742;2023-10-19T12:26:11;98972.66;;;17.06;100.00
54882;BME280;40775;51.448;4.742;2023-10-19T12:28:39;98972.66;;;17.06;100.00
54882;BME280;40775;51.448;4.742;2023-10-19T12:31:08;98981.53;;;17.05;100.00
54882;BME280;40775;51.448;4.742;2023-10-19T12:33:39;98966.50;;;17.05;100.00
54882;BME280;40775;51.448;4.742;2023-10-19T12:36:06;98970.00;;;17.06;100.00
54882;BME280;40775;51.448;4.742;2023-10-19T12:38:52;98965.56;;;17.06;100.00
54882;BME280;40775;51.448;4.742;2023-10-19T12:41:20;98956.69;;;17.07;100.00
54882;BME280;40775;51.448;4.742;2023-10-19T12:43:48;98969.91;;;17.09;100.00
54882;BME280;40775;51.448;4.742;2023-10-19T12:46:15;98961.94;;;17.09;100.00
54882;BME280;40775;51.448;4.742;2023-10-19T12:48:43;98957.63;;;17.06;100.00
54882;BME280;40775;51.448;4.742;2023-10-19T12:51:10;98955.84;;;17.07;100.00
54882;BME280;40775;51.448;4.742;2023-10-19T12:53:41;98954.00;;;17.09;100.00
54882;BME280;40775;51.448;4.742;2023-10-19T12:56:08;98949.56;;;17.09;100.00
54882;BME280;40775;51.448;4.742;2023-10-19T12:58:38;98946.91;;;17.09;100.00
54882;BME280;40775;51.448;4.742;2023-10-19T13:01:05;98948.69;;;17.09;100.00
54882;BME280;40775;51.448;4.742;2023-10-19T13:03:32;98937.16;;;17.10;100.00
54882;BME280;40775;51.448;4.742;2023-10-19T13:06:00;98937.09;;;17.11;100.00
54882;BME280;40775;51.448;4.742;2023-10-19T13:08:31;98935.38;;;17.10;100.00